createdAt,value
2022-10-08T00:01:22.124Z,100060.47
2022-10-08T00:03:52.592Z,100067.34
2022-10-08T00:06:21.705Z,100055.88
2022-10-08T00:08:50.414Z,100062.00
2022-10-08T00:11:20.590Z,100061.31
2022-10-08T00:13:48.594Z,100047.84
2022-10-08T00:16:18.190Z,100052.84
2022-10-08T00:18:47.077Z,100045.81
2022-10-08T00:21:16.668Z,100042.63
2022-10-08T00:23:46.597Z,100050.22
2022-10-08T00:26:15.426Z,100044.03
2022-10-08T00:28:46.471Z,100042.78
2022-10-08T00:31:15.808Z,100036.63
2022-10-08T00:33:43.447Z,100044.59
2022-10-08T00:36:12.645Z,100039.50
2022-10-08T00:38:40.671Z,100043.19
2022-10-08T00:41:18.494Z,100049.84
2022-10-08T00:43:49.072Z,100036.47
2022-10-08T00:46:23.198Z,100038.69
2022-10-08T00:48:51.734Z,100034.59
2022-10-08T00:51:19.195Z,100044.06
2022-10-08T00:53:47.066Z,100033.78
2022-10-08T00:56:14.612Z,100025.34
2022-10-08T00:58:42.787Z,100030.66
2022-10-08T01:01:11.675Z,100032.19
2022-10-08T01:03:39.125Z,100029.53
2022-10-08T01:06:12.046Z,100030.47
2022-10-08T01:08:45.430Z,100018.06
2022-10-08T01:11:21.230Z,100026.63
2022-10-08T01:13:53.962Z,100026.38
2022-10-08T01:16:28.323Z,100023.41
2022-10-08T01:18:59.083Z,100018.88
2022-10-08T01:21:35.480Z,100013.56
2022-10-08T01:24:20.650Z,100017.41
2022-10-08T01:26:55.774Z,100018.56
2022-10-08T01:29:29.449Z,100015.06
2022-10-08T01:32:01.684Z,100024.88
2022-10-08T01:34:33.401Z,100024.91
2022-10-08T01:37:00.819Z,100023.09
2022-10-08T01:39:32.570Z,100025.78
2022-10-08T01:42:00.712Z,100024.06
2022-10-08T01:44:33.178Z,100025.56
2022-10-08T01:47:02.341Z,100019.41
2022-10-08T01:49:34.102Z,100021.25
2022-10-08T01:52:05.342Z,100019.25
2022-10-08T01:54:34.263Z,100022.88
2022-10-08T01:57:02.618Z,100019.59
2022-10-08T01:59:34.193Z,100020.94
2022-10-08T02:02:06.190Z,100018.75
2022-10-08T02:04:37.444Z,100013.44
2022-10-08T02:07:08.256Z,100000.97
2022-10-08T02:09:38.304Z,100009.28
2022-10-08T02:12:06.200Z,100004.97
2022-10-08T02:14:36.281Z,100001.50
2022-10-08T02:17:11.233Z,100007.44
2022-10-08T02:19:47.679Z,100009.44
2022-10-08T02:22:17.381Z,100006.59
2022-10-08T02:24:48.792Z,100004.44
2022-10-08T02:27:16.224Z,100005.06
2022-10-08T02:29:47.000Z,99999.50
2022-10-08T02:32:19.934Z,100000.47
2022-10-08T02:34:49.299Z,99999.84
2022-10-08T02:37:20.164Z,99994.53
2022-10-08T02:39:50.213Z,99994.50
2022-10-08T02:42:19.764Z,99999.47
2022-10-08T02:44:50.552Z,100003.94
2022-10-08T02:47:19.586Z,99998.53
2022-10-08T02:49:51.729Z,100005.66
2022-10-08T02:52:20.041Z,99993.94
2022-10-08T02:54:50.139Z,99997.50
2022-10-08T02:57:19.771Z,99980.88
2022-10-08T02:59:48.993Z,99996.31
2022-10-08T03:02:20.424Z,99984.78
2022-10-08T03:04:52.047Z,99977.91
2022-10-08T03:07:22.894Z,99985.38
2022-10-08T03:09:51.709Z,99982.88
2022-10-08T03:12:19.256Z,99991.22
2022-10-08T03:14:49.323Z,99988.34
2022-10-08T03:17:20.067Z,99996.50
2022-10-08T03:19:47.481Z,99995.31
2022-10-08T03:22:14.935Z,99999.88
2022-10-08T03:24:42.314Z,100008.22
2022-10-08T03:27:09.673Z,99991.81
2022-10-08T03:29:37.121Z,99996.16
2022-10-08T03:32:06.564Z,100003.72
2022-10-08T03:34:33.935Z,100007.38
2022-10-08T03:37:01.318Z,99996.31
2022-10-08T03:39:28.742Z,99993.66
2022-10-08T03:41:56.133Z,100005.13
2022-10-08T03:44:23.606Z,100003.94
2022-10-08T03:46:50.957Z,100002.28
2022-10-08T03:49:19.752Z,100000.06
2022-10-08T03:51:47.107Z,100004.13
2022-10-08T03:54:14.515Z,100010.31
2022-10-08T03:56:42.050Z,100005.81
2022-10-08T03:59:09.469Z,99992.28
2022-10-08T04:01:36.982Z,99996.53
2022-10-08T04:04:04.396Z,99993.72
2022-10-08T04:06:33.172Z,100001.50
2022-10-08T04:09:01.580Z,99995.69
2022-10-08T04:11:29.854Z,99993.91
2022-10-08T04:13:57.244Z,99998.84
2022-10-08T04:16:24.644Z,99995.09
2022-10-08T04:18:52.034Z,100011.50
2022-10-08T04:21:19.858Z,100012.31
2022-10-08T04:23:50.171Z,100013.25
2022-10-08T04:26:18.291Z,100013.38
2022-10-08T04:28:47.166Z,100010.16
2022-10-08T04:31:17.617Z,100019.97
2022-10-08T04:33:46.112Z,100015.47
2022-10-08T04:36:14.928Z,100012.50
2022-10-08T04:38:43.233Z,100010.28
2022-10-08T04:41:13.870Z,100019.88
2022-10-08T04:43:42.166Z,100023.75
2022-10-08T04:46:10.840Z,100028.50
2022-10-08T04:48:40.678Z,100027.25
2022-10-08T04:51:10.774Z,100021.63
2022-10-08T04:53:38.685Z,100025.84
2022-10-08T04:56:12.707Z,100030.25
2022-10-08T04:58:40.428Z,100031.00
2022-10-08T05:01:09.117Z,100041.13
2022-10-08T05:03:37.626Z,100044.34
2022-10-08T05:06:05.680Z,100056.16
2022-10-08T05:08:33.553Z,100055.72
2022-10-08T05:11:01.073Z,100053.56
2022-10-08T05:13:29.779Z,100058.00
2022-10-08T05:15:57.192Z,100053.31
2022-10-08T05:18:24.795Z,100051.28
2022-10-08T05:20:52.166Z,100055.22
2022-10-08T05:23:19.566Z,100061.66
2022-10-08T05:25:46.961Z,100045.47
2022-10-08T05:28:14.295Z,100045.09
2022-10-08T05:30:43.005Z,100031.91
2022-10-08T05:33:10.341Z,100036.28
2022-10-08T05:35:38.262Z,100036.28
2022-10-08T05:38:05.838Z,100049.69
2022-10-08T05:40:33.808Z,100042.59
2022-10-08T05:43:01.254Z,100035.03
2022-10-08T05:45:28.610Z,100032.03
2022-10-08T05:47:57.283Z,100033.63
2022-10-08T05:50:24.666Z,100032.22
2022-10-08T05:52:52.081Z,100034.75
2022-10-08T05:55:21.492Z,100029.19
2022-10-08T05:57:48.858Z,100051.78
2022-10-08T06:00:16.637Z,100065.81
2022-10-08T06:02:44.191Z,100074.06
2022-10-08T06:05:13.085Z,100082.53
2022-10-08T06:07:40.451Z,100097.47
2022-10-08T06:10:08.736Z,100094.66
2022-10-08T06:12:36.097Z,100102.38
2022-10-08T06:15:03.500Z,100102.56
2022-10-08T06:17:30.870Z,100111.91
2022-10-08T06:19:58.210Z,100111.41
2022-10-08T06:22:29.274Z,100112.88
2022-10-08T06:24:56.665Z,100122.22
2022-10-08T06:27:24.001Z,100130.31
2022-10-08T06:29:51.400Z,100125.97
2022-10-08T06:32:21.722Z,100135.25
2022-10-08T06:34:49.102Z,100138.81
2022-10-08T06:37:16.450Z,100142.00
2022-10-08T06:39:48.418Z,100141.31
2022-10-08T06:42:16.117Z,100151.44
2022-10-08T06:44:44.673Z,100156.69
2022-10-08T06:47:12.086Z,100153.25
2022-10-08T06:49:40.857Z,100154.38
2022-10-08T06:52:08.209Z,100167.97
2022-10-08T06:54:35.589Z,100165.59
2022-10-08T06:57:04.299Z,100171.44
2022-10-08T06:59:31.646Z,100162.00
2022-10-08T07:01:59.092Z,100166.22
2022-10-08T07:04:26.509Z,100183.91
2022-10-08T07:06:53.835Z,100184.78
2022-10-08T07:09:21.202Z,100186.50
2022-10-08T07:11:48.535Z,100188.50
2022-10-08T07:14:17.330Z,100201.09
2022-10-08T07:16:44.748Z,100200.44
2022-10-08T07:19:12.212Z,100200.59
2022-10-08T07:21:40.430Z,100207.13
2022-10-08T07:24:07.888Z,100204.09
2022-10-08T07:26:35.781Z,100217.56
2022-10-08T07:29:05.785Z,100216.16
2022-10-08T07:31:38.306Z,100211.88
2022-10-08T07:34:07.564Z,100208.00
2022-10-08T07:36:35.244Z,100200.66
2022-10-08T07:39:04.162Z,100214.88
2022-10-08T07:41:31.701Z,100223.41
2022-10-08T07:44:01.367Z,100228.66
2022-10-08T07:46:29.966Z,100239.00
2022-10-08T07:49:01.365Z,100237.44
2022-10-08T07:51:29.759Z,100248.28
2022-10-08T07:54:02.126Z,100242.00
2022-10-08T07:56:30.194Z,100239.88
2022-10-08T07:58:59.429Z,100241.75
2022-10-08T08:01:29.324Z,100234.56
2022-10-08T08:03:59.304Z,100241.03
2022-10-08T08:06:27.011Z,100241.91
2022-10-08T08:08:54.719Z,100249.06
2022-10-08T08:11:24.357Z,100260.22
2022-10-08T08:13:52.066Z,100254.75
2022-10-08T08:16:20.857Z,100265.75
2022-10-08T08:18:49.364Z,100272.00
2022-10-08T08:21:19.465Z,100274.75
2022-10-08T08:23:48.276Z,100271.72
2022-10-08T08:26:17.377Z,100280.56
2022-10-08T08:28:44.981Z,100274.72
2022-10-08T08:31:14.489Z,100277.72
2022-10-08T08:33:42.867Z,100284.38
2022-10-08T08:36:10.792Z,100291.50
2022-10-08T08:38:39.895Z,100301.56
2022-10-08T08:41:13.536Z,100301.84
2022-10-08T08:43:42.268Z,100311.19
2022-10-08T08:46:10.752Z,100307.09
2022-10-08T08:48:39.447Z,100302.94
2022-10-08T08:51:06.919Z,100307.63
2022-10-08T08:53:34.645Z,100313.59
2022-10-08T08:56:06.205Z,100308.97
2022-10-08T08:58:39.199Z,100311.28
2022-10-08T09:01:15.522Z,100322.28
2022-10-08T09:03:45.280Z,100316.91
2022-10-08T09:06:14.705Z,100322.34
2022-10-08T09:08:46.057Z,100321.16
2022-10-08T09:11:16.482Z,100327.94
2022-10-08T09:13:47.545Z,100315.41
2022-10-08T09:16:15.739Z,100326.81
2022-10-08T09:18:44.056Z,100325.25
2022-10-08T09:21:11.402Z,100331.56
2022-10-08T09:23:38.805Z,100327.66
2022-10-08T09:26:14.146Z,100333.16
2022-10-08T09:28:45.773Z,100341.06
2022-10-08T09:31:18.931Z,100344.28
2022-10-08T09:33:46.894Z,100340.47
2022-10-08T09:36:14.242Z,100346.41
2022-10-08T09:38:41.834Z,100347.63
2022-10-08T09:41:18.209Z,100346.88
2022-10-08T09:44:07.826Z,100357.69
2022-10-08T09:46:35.206Z,100345.88
2022-10-08T09:49:21.573Z,100360.75
2022-10-08T09:51:50.009Z,100361.53
2022-10-08T09:54:25.095Z,100361.63
2022-10-08T09:56:53.457Z,100367.22
2022-10-08T09:59:23.866Z,100365.34
2022-10-08T10:01:54.159Z,100362.31
2022-10-08T10:04:31.465Z,100362.41
2022-10-08T10:06:59.001Z,100361.03
2022-10-08T10:09:31.978Z,100374.91
2022-10-08T10:12:02.602Z,100365.34
2022-10-08T10:14:37.773Z,100367.69
2022-10-08T10:17:10.809Z,100359.13
2022-10-08T10:19:42.904Z,100359.34
2022-10-08T10:22:14.309Z,100367.19
2022-10-08T10:24:49.166Z,100362.03
2022-10-08T10:27:21.581Z,100364.06
2022-10-08T10:29:55.756Z,100354.88
2022-10-08T10:32:31.694Z,100348.31
2022-10-08T10:35:05.401Z,100345.38
2022-10-08T10:37:38.178Z,100358.00
2022-10-08T10:40:22.258Z,100341.34
2022-10-08T10:42:55.889Z,100359.88
2022-10-08T10:45:27.183Z,100362.69
2022-10-08T10:47:54.934Z,100361.38
2022-10-08T10:50:28.002Z,100360.22
2022-10-08T10:53:02.487Z,100359.41
2022-10-08T10:55:32.961Z,100371.25
2022-10-08T10:58:19.686Z,100367.84
2022-10-08T11:00:57.083Z,100367.03
2022-10-08T11:03:30.536Z,100377.94
2022-10-08T11:06:10.547Z,100377.94
2022-10-08T11:08:41.380Z,100359.13
2022-10-08T11:11:20.305Z,100357.84
2022-10-08T11:13:56.345Z,100360.91
2022-10-08T11:16:35.927Z,100358.38
2022-10-08T11:19:05.731Z,100353.31
2022-10-08T11:21:44.478Z,100360.66
2022-10-08T11:24:28.191Z,100352.00
2022-10-08T11:27:01.035Z,100341.09
2022-10-08T11:29:34.605Z,100361.75
2022-10-08T11:32:03.978Z,100355.53
2022-10-08T11:34:33.231Z,100353.09
2022-10-08T11:37:09.141Z,100351.91
2022-10-08T11:39:44.039Z,100342.19
2022-10-08T11:42:15.949Z,100352.06
2022-10-08T11:44:43.596Z,100356.91
2022-10-08T11:47:37.181Z,100353.13
2022-10-08T11:50:06.717Z,100346.25
2022-10-08T11:52:35.226Z,100350.38
2022-10-08T11:55:03.001Z,100339.00
2022-10-08T11:57:55.884Z,100354.34
2022-10-08T12:00:31.483Z,100350.22
2022-10-08T12:03:01.393Z,100347.38
2022-10-08T12:05:44.503Z,100354.56
2022-10-08T12:08:51.567Z,100354.72
2022-10-08T12:11:52.615Z,100358.75
2022-10-08T12:14:33.948Z,100361.75
2022-10-08T12:17:12.445Z,100360.94
2022-10-08T12:20:05.104Z,100345.50
2022-10-08T12:22:44.223Z,100370.03
2022-10-08T12:25:33.586Z,100372.66
2022-10-08T12:28:46.903Z,100374.97
2022-10-08T12:31:20.530Z,100379.97
2022-10-08T12:34:03.024Z,100374.66
2022-10-08T12:36:45.543Z,100380.44
2022-10-08T12:39:19.025Z,100369.28
2022-10-08T12:41:54.985Z,100389.09
2022-10-08T12:44:35.234Z,100396.34
2022-10-08T12:47:10.405Z,100387.66
2022-10-08T12:49:41.432Z,100399.63
2022-10-08T12:52:11.138Z,100397.56
2022-10-08T12:54:39.960Z,100396.44
2022-10-08T12:57:11.040Z,100400.25
2022-10-08T12:59:40.645Z,100402.53
2022-10-08T13:02:26.242Z,100404.00
2022-10-08T13:04:53.638Z,100402.53
2022-10-08T13:07:26.214Z,100407.94
2022-10-08T13:09:56.081Z,100397.41
2022-10-08T13:12:24.878Z,100406.69
2022-10-08T13:14:59.918Z,100407.50
2022-10-08T13:17:35.025Z,100409.81
2022-10-08T13:20:12.041Z,100410.59
2022-10-08T13:22:39.453Z,100400.63
2022-10-08T13:25:22.921Z,100412.81
2022-10-08T13:28:10.208Z,100410.59
2022-10-08T13:30:37.733Z,100402.13
2022-10-08T13:33:06.427Z,100407.88
2022-10-08T13:35:34.048Z,100396.66
2022-10-08T13:38:01.910Z,100412.59
2022-10-08T13:40:30.068Z,100415.31
2022-10-08T13:42:59.164Z,100412.78
2022-10-08T13:45:36.491Z,100432.31
2022-10-08T13:48:04.066Z,100429.78
2022-10-08T13:50:31.520Z,100435.84
2022-10-08T13:53:01.683Z,100423.44
2022-10-08T13:55:31.839Z,100441.97
2022-10-08T13:58:02.001Z,100447.00
2022-10-08T14:00:32.187Z,100456.44
2022-10-08T14:03:00.414Z,100453.56
2022-10-08T14:05:28.576Z,100438.03
2022-10-08T14:07:59.089Z,100453.66
2022-10-08T14:10:27.143Z,100443.88
2022-10-08T14:12:54.782Z,100448.25
2022-10-08T14:15:22.263Z,100455.31
2022-10-08T14:17:53.309Z,100448.84
2022-10-08T14:20:20.791Z,100458.16
2022-10-08T14:22:48.189Z,100455.63
2022-10-08T14:25:18.284Z,100475.97
2022-10-08T14:27:46.453Z,100474.94
2022-10-08T14:30:15.158Z,100469.97
2022-10-08T14:32:42.870Z,100483.69
2022-10-08T14:35:12.679Z,100495.06
2022-10-08T14:37:42.479Z,100484.03
2022-10-08T14:40:12.946Z,100493.88
2022-10-08T14:42:40.360Z,100489.72
2022-10-08T14:45:08.573Z,100496.91
2022-10-08T14:47:36.009Z,100496.91
2022-10-08T14:50:03.513Z,100491.41
2022-10-08T14:52:32.939Z,100500.31
2022-10-08T14:55:00.357Z,100499.09
2022-10-08T14:57:27.814Z,100506.06
2022-10-08T14:59:55.340Z,100499.34
2022-10-08T15:02:24.839Z,100501.19
2022-10-08T15:04:53.694Z,100510.97
2022-10-08T15:07:21.443Z,100512.53
2022-10-08T15:09:50.176Z,100504.69
2022-10-08T15:12:17.703Z,100503.84
2022-10-08T15:14:45.123Z,100513.19
2022-10-08T15:17:12.579Z,100511.53
2022-10-08T15:19:40.039Z,100503.13
2022-10-08T15:22:07.498Z,100499.34
2022-10-08T15:24:34.903Z,100506.16
2022-10-08T15:27:03.638Z,100518.53
2022-10-08T15:29:31.073Z,100520.47
2022-10-08T15:31:58.640Z,100504.94
2022-10-08T15:34:26.200Z,100511.78
2022-10-08T15:36:54.766Z,100517.22
2022-10-08T15:39:25.067Z,100528.19
2022-10-08T15:41:53.352Z,100524.53
2022-10-08T15:44:23.903Z,100514.75
2022-10-08T15:46:59.344Z,100531.91
2022-10-08T15:49:30.910Z,100531.66
2022-10-08T15:51:58.366Z,100541.47
2022-10-08T15:54:25.874Z,100541.91
2022-10-08T15:56:53.342Z,100546.75
2022-10-08T15:59:22.184Z,100557.22
2022-10-08T16:01:49.681Z,100553.59
2022-10-08T16:04:17.136Z,100560.78
2022-10-08T16:06:45.284Z,100561.56
2022-10-08T16:09:13.389Z,100570.84
2022-10-08T16:11:40.824Z,100569.25
2022-10-08T16:14:10.883Z,100575.38
2022-10-08T16:16:40.287Z,100581.44
2022-10-08T16:19:10.159Z,100581.81
2022-10-08T16:21:38.490Z,100579.06
2022-10-08T16:24:06.516Z,100589.03
2022-10-08T16:26:35.462Z,100594.81
2022-10-08T16:29:05.198Z,100599.63
2022-10-08T16:31:34.697Z,100610.53
2022-10-08T16:34:05.125Z,100604.59
2022-10-08T16:36:34.813Z,100605.75
2022-10-08T16:39:03.550Z,100609.38
2022-10-08T16:41:31.938Z,100604.69
2022-10-08T16:44:00.861Z,100615.47
2022-10-08T16:46:30.438Z,100622.06
2022-10-08T16:48:59.270Z,100626.66
2022-10-08T16:51:29.699Z,100634.78
2022-10-08T16:53:59.148Z,100633.41
2022-10-08T16:56:31.040Z,100640.00
2022-10-08T16:58:59.889Z,100657.09
2022-10-08T17:01:27.911Z,100659.88
2022-10-08T17:03:55.946Z,100638.94
2022-10-08T17:06:24.854Z,100651.13
2022-10-08T17:08:53.714Z,100658.28
2022-10-08T17:11:22.106Z,100657.75
2022-10-08T17:13:51.218Z,100665.59
2022-10-08T17:16:20.354Z,100666.47
2022-10-08T17:18:48.202Z,100679.50
2022-10-08T17:21:16.001Z,100680.78
2022-10-08T17:23:43.498Z,100681.72
2022-10-08T17:26:13.840Z,100671.25
2022-10-08T17:28:43.266Z,100693.94
2022-10-08T17:31:14.355Z,100693.75
2022-10-08T17:33:42.198Z,100700.94
2022-10-08T17:36:11.727Z,100685.34
2022-10-08T17:38:40.492Z,100710.16
2022-10-08T17:41:14.037Z,100712.56
2022-10-08T17:43:41.690Z,100699.22
2022-10-08T17:46:11.249Z,100715.81
2022-10-08T17:48:39.230Z,100703.91
2022-10-08T17:51:11.938Z,100719.00
2022-10-08T17:53:39.661Z,100716.81
2022-10-08T17:56:08.644Z,100728.44
2022-10-08T17:58:37.470Z,100730.81
2022-10-08T18:01:08.708Z,100727.59
2022-10-08T18:03:36.978Z,100727.22
2022-10-08T18:06:04.754Z,100731.25
2022-10-08T18:08:32.704Z,100740.44
2022-10-08T18:11:02.673Z,100737.00
2022-10-08T18:13:30.170Z,100750.09
2022-10-08T18:16:03.285Z,100737.47
2022-10-08T18:18:30.802Z,100758.34
2022-10-08T18:20:59.448Z,100754.06
2022-10-08T18:23:28.799Z,100759.25
2022-10-08T18:25:56.586Z,100771.34
2022-10-08T18:28:24.204Z,100769.38
2022-10-08T18:30:51.765Z,100776.34
2022-10-08T18:33:24.516Z,100780.81
2022-10-08T18:35:52.210Z,100786.63
2022-10-08T18:38:19.629Z,100775.44
2022-10-08T18:40:47.122Z,100788.50
2022-10-08T18:43:14.538Z,100792.91
2022-10-08T18:45:41.937Z,100783.25
2022-10-08T18:48:16.039Z,100802.47
2022-10-08T18:50:44.830Z,100794.25
2022-10-08T18:53:12.263Z,100804.72
2022-10-08T18:55:39.843Z,100808.22
2022-10-08T18:58:07.301Z,100802.38
2022-10-08T19:00:37.887Z,100807.22
2022-10-08T19:03:05.400Z,100812.25
2022-10-08T19:05:32.970Z,100811.25
2022-10-08T19:08:01.774Z,100813.81
2022-10-08T19:10:30.486Z,100818.81
2022-10-08T19:12:58.425Z,100822.22
2022-10-08T19:15:26.315Z,100824.59
2022-10-08T19:17:53.690Z,100823.06
2022-10-08T19:20:21.418Z,100832.47
2022-10-08T19:22:49.079Z,100831.53
2022-10-08T19:25:18.615Z,100824.09
2022-10-08T19:27:47.670Z,100833.31
2022-10-08T19:30:16.223Z,100830.75
2022-10-08T19:32:43.834Z,100835.25
2022-10-08T19:35:11.383Z,100825.19
2022-10-08T19:37:38.983Z,100838.63
2022-10-08T19:40:07.063Z,100838.47
2022-10-08T19:42:35.786Z,100842.16
2022-10-08T19:45:03.295Z,100837.66
2022-10-08T19:47:30.730Z,100852.47
2022-10-08T19:49:58.103Z,100848.00
2022-10-08T19:52:25.795Z,100854.09
2022-10-08T19:54:53.215Z,100846.50
2022-10-08T19:57:20.762Z,100855.13
2022-10-08T19:59:49.550Z,100855.59
2022-10-08T20:02:17.044Z,100859.47
2022-10-08T20:04:44.837Z,100864.22
2022-10-08T20:07:12.226Z,100869.00
2022-10-08T20:09:39.853Z,100870.25
2022-10-08T20:12:07.286Z,100867.06
2022-10-08T20:14:34.892Z,100865.94
2022-10-08T20:17:03.647Z,100875.84
2022-10-08T20:19:31.069Z,100872.94
2022-10-08T20:21:58.759Z,100874.47
2022-10-08T20:24:26.268Z,100864.19
2022-10-08T20:26:53.815Z,100881.34
2022-10-08T20:29:25.161Z,100879.09
2022-10-08T20:31:55.818Z,100881.34
2022-10-08T20:34:26.866Z,100885.53
2022-10-08T20:36:54.471Z,100893.63
2022-10-08T20:39:23.026Z,100897.25
2022-10-08T20:41:51.539Z,100899.06
2022-10-08T20:44:20.725Z,100899.47
2022-10-08T20:46:49.678Z,100897.69
2022-10-08T20:49:17.317Z,100889.44
2022-10-08T20:51:46.161Z,100891.09
2022-10-08T20:54:16.325Z,100902.84
2022-10-08T20:56:44.215Z,100904.50
2022-10-08T20:59:15.010Z,100910.78
2022-10-08T21:01:42.885Z,100904.63
2022-10-08T21:04:10.375Z,100892.22
2022-10-08T21:06:39.476Z,100899.22
2022-10-08T21:09:08.373Z,100909.53
2022-10-08T21:11:36.556Z,100911.75
2022-10-08T21:14:04.477Z,100906.47
2022-10-08T21:16:34.555Z,100905.19
2022-10-08T21:19:03.191Z,100913.03
2022-10-08T21:21:31.715Z,100917.50
2022-10-08T21:23:59.736Z,100915.00
2022-10-08T21:26:29.684Z,100917.50
2022-10-08T21:28:59.630Z,100914.44
2022-10-08T21:31:30.282Z,100916.22
2022-10-08T21:34:00.682Z,100918.03
2022-10-08T21:36:29.949Z,100915.50
2022-10-08T21:38:58.999Z,100920.50
2022-10-08T21:41:29.629Z,100927.81
2022-10-08T21:43:57.698Z,100921.88
2022-10-08T21:46:26.835Z,100932.34
2022-10-08T21:48:54.940Z,100929.28
2022-10-08T21:51:22.440Z,100909.28
2022-10-08T21:53:52.258Z,100927.69
2022-10-08T21:56:22.249Z,100934.13
2022-10-08T21:58:52.689Z,100944.16
2022-10-08T22:01:22.652Z,100936.53
2022-10-08T22:03:50.397Z,100942.66
2022-10-08T22:06:17.825Z,100937.22
2022-10-08T22:08:45.254Z,100932.41
2022-10-08T22:11:12.633Z,100933.88
2022-10-08T22:13:40.134Z,100938.06
2022-10-08T22:16:08.906Z,100939.50
2022-10-08T22:18:36.689Z,100935.91
2022-10-08T22:21:05.777Z,100941.72
2022-10-08T22:23:36.001Z,100943.63
2022-10-08T22:26:06.436Z,100946.28
2022-10-08T22:28:34.324Z,100941.53
2022-10-08T22:31:02.106Z,100941.91
2022-10-08T22:33:31.699Z,100952.78
2022-10-08T22:36:02.636Z,100926.00
2022-10-08T22:38:30.039Z,100941.47
2022-10-08T22:41:01.988Z,100944.28
2022-10-08T22:43:29.350Z,100945.81
2022-10-08T22:45:56.831Z,100951.97
2022-10-08T22:48:24.646Z,100949.00
2022-10-08T22:50:53.560Z,100943.44
2022-10-08T22:53:20.982Z,100946.28
2022-10-08T22:55:48.429Z,100936.38
2022-10-08T22:58:15.855Z,100943.28
2022-10-08T23:00:43.269Z,100943.16
2022-10-08T23:03:10.765Z,100946.34
2022-10-08T23:05:38.176Z,100958.94
2022-10-08T23:08:07.125Z,100956.41
2022-10-08T23:10:35.360Z,100950.94
2022-10-08T23:13:02.821Z,100949.88
2022-10-08T23:15:30.173Z,100955.59
2022-10-08T23:17:57.564Z,100959.78
2022-10-08T23:20:24.925Z,100958.78
2022-10-08T23:22:53.157Z,100956.44
2022-10-08T23:25:21.841Z,100950.31
2022-10-08T23:27:49.224Z,100948.47
2022-10-08T23:30:38.399Z,100958.38
2022-10-08T23:33:04.185Z,100953.66
2022-10-08T23:35:31.545Z,100949.47
2022-10-08T23:37:58.924Z,100951.41
2022-10-08T23:43:16.557Z,100955.03
2022-10-08T23:45:44.195Z,100949.44
2022-10-08T23:48:11.580Z,100952.38
2022-10-08T23:50:39.613Z,100945.81
2022-10-08T23:53:07.122Z,100947.59
2022-10-08T23:55:35.727Z,100961.22
2022-10-08T23:58:03.235Z,100950.75
